createdAt,value
2018-04-18T00:02:07.398Z,99.90
2018-04-18T00:04:34.952Z,99.90
2018-04-18T00:07:02.431Z,99.90
2018-04-18T00:09:29.965Z,99.90
2018-04-18T00:11:57.506Z,99.90
2018-04-18T00:14:25.017Z,99.90
2018-04-18T00:16:52.543Z,99.90
2018-04-18T00:19:20.090Z,99.90
2018-04-18T00:21:47.619Z,99.90
2018-04-18T00:24:15.150Z,99.90
2018-04-18T00:26:42.703Z,99.90
2018-04-18T00:29:10.215Z,99.90
2018-04-18T00:31:37.706Z,99.90
2018-04-18T00:34:05.219Z,99.90
2018-04-18T00:36:32.714Z,99.90
2018-04-18T00:39:00.275Z,99.90
2018-04-18T00:41:28.553Z,99.90
2018-04-18T00:43:56.070Z,99.90
2018-04-18T00:46:23.615Z,99.90
2018-04-18T00:48:51.935Z,99.90
2018-04-18T00:51:20.522Z,99.90
2018-04-18T00:53:48.044Z,99.90
2018-04-18T00:56:15.551Z,99.90
2018-04-18T00:58:43.125Z,99.90
2018-04-18T01:01:10.614Z,99.90
2018-04-18T01:03:38.145Z,99.90
2018-04-18T01:06:06.435Z,99.90
2018-04-18T01:08:34.690Z,99.90
2018-04-18T01:11:02.174Z,99.90
2018-04-18T01:13:29.648Z,99.90
2018-04-18T01:15:57.188Z,99.90
2018-04-18T01:18:24.696Z,99.90
2018-04-18T01:20:52.194Z,99.90
2018-04-18T01:23:20.460Z,99.90
2018-04-18T01:25:48.695Z,99.90
2018-04-18T01:28:16.226Z,99.90
2018-04-18T01:30:43.787Z,99.90
2018-04-18T01:33:11.315Z,99.90
2018-04-18T01:35:39.574Z,99.90
2018-04-18T01:38:07.073Z,99.90
2018-04-18T01:40:34.535Z,99.90
2018-04-18T01:43:02.071Z,99.90
2018-04-18T01:45:30.318Z,99.90
2018-04-18T01:47:57.847Z,99.90
2018-04-18T01:50:25.392Z,99.90
2018-04-18T01:52:52.885Z,99.90
2018-04-18T01:55:20.426Z,99.90
2018-04-18T01:57:47.930Z,99.90
2018-04-18T02:00:16.218Z,99.90
2018-04-18T02:02:44.512Z,99.90
2018-04-18T02:05:11.997Z,99.90
2018-04-18T02:07:39.516Z,99.90
2018-04-18T02:10:07.782Z,99.90
2018-04-18T02:12:35.350Z,99.90
2018-04-18T02:15:02.860Z,99.90
2018-04-18T02:17:30.385Z,99.90
2018-04-18T02:19:57.900Z,99.90
2018-04-18T02:22:26.154Z,99.90
2018-04-18T02:24:53.703Z,99.90
2018-04-18T02:27:21.203Z,99.90
2018-04-18T02:29:49.460Z,99.90
2018-04-18T02:32:16.923Z,99.90
2018-04-18T02:34:45.167Z,99.90
2018-04-18T02:37:12.716Z,99.90
2018-04-18T02:39:41.004Z,99.90
2018-04-18T02:42:08.547Z,99.90
2018-04-18T02:44:36.066Z,99.90
2018-04-18T02:47:03.589Z,99.90
2018-04-18T02:49:31.101Z,99.90
2018-04-18T02:51:58.927Z,99.90
2018-04-18T02:54:26.522Z,99.90
2018-04-18T02:56:54.029Z,99.90
2018-04-18T02:59:21.543Z,99.90
2018-04-18T03:01:49.047Z,99.90
2018-04-18T03:04:16.514Z,99.90
2018-04-18T03:06:44.782Z,99.90
2018-04-18T03:09:12.278Z,99.90
2018-04-18T03:11:39.764Z,99.90
2018-04-18T03:14:07.279Z,99.90
2018-04-18T03:16:35.575Z,99.90
2018-04-18T03:19:03.072Z,99.90
2018-04-18T03:21:32.195Z,99.90
2018-04-18T03:24:00.437Z,99.90
2018-04-18T03:26:28.685Z,99.90
2018-04-18T03:28:56.248Z,99.90
2018-04-18T03:31:23.776Z,99.90
2018-04-18T03:33:52.061Z,99.90
2018-04-18T03:36:19.538Z,99.90
2018-04-18T03:38:47.044Z,99.90
2018-04-18T03:41:14.567Z,99.90
2018-04-18T03:43:42.089Z,99.90
2018-04-18T03:46:10.375Z,99.90
2018-04-18T03:48:37.899Z,99.90
2018-04-18T03:51:05.393Z,99.90
2018-04-18T03:53:32.857Z,99.90
2018-04-18T03:56:00.349Z,99.90
2018-04-18T03:58:27.883Z,99.90
2018-04-18T04:00:55.409Z,99.90
2018-04-18T04:03:23.688Z,99.90
2018-04-18T04:05:51.974Z,99.90
2018-04-18T04:08:19.454Z,99.90
2018-04-18T04:10:46.941Z,99.90
2018-04-18T04:13:14.440Z,99.90
2018-04-18T04:15:41.913Z,99.90
2018-04-18T04:18:21.201Z,99.90
2018-04-18T04:21:00.534Z,99.90
2018-04-18T04:23:40.194Z,99.90
2018-04-18T04:26:08.440Z,99.90
2018-04-18T04:28:35.973Z,99.90
2018-04-18T04:31:03.507Z,99.90
2018-04-18T04:33:31.015Z,99.90
2018-04-18T04:35:58.547Z,99.90
2018-04-18T04:38:26.029Z,99.90
2018-04-18T04:40:53.623Z,99.90
2018-04-18T04:43:21.853Z,99.90
2018-04-18T04:45:49.421Z,99.90
2018-04-18T04:48:16.905Z,99.90
2018-04-18T04:50:45.196Z,99.90
2018-04-18T04:53:12.715Z,99.90
2018-04-18T04:55:40.214Z,99.90
2018-04-18T04:58:07.788Z,99.90
2018-04-18T05:00:35.308Z,99.90
2018-04-18T05:03:03.716Z,99.90
2018-04-18T05:05:31.310Z,99.90
2018-04-18T05:07:58.900Z,99.90
2018-04-18T05:10:26.461Z,99.90
2018-04-18T05:12:53.987Z,99.90
2018-04-18T05:15:21.496Z,99.90
2018-04-18T05:17:49.102Z,99.90
2018-04-18T05:20:16.655Z,99.90
2018-04-18T05:22:44.511Z,99.90
2018-04-18T05:25:12.459Z,99.90
2018-04-18T05:27:40.008Z,99.90
2018-04-18T05:30:08.353Z,98.40
2018-04-18T05:32:35.883Z,98.40
2018-04-18T05:35:04.186Z,91.30
2018-04-18T05:37:31.722Z,91.30
2018-04-18T05:40:00.041Z,82.50
2018-04-18T05:42:27.517Z,82.40
2018-04-18T05:44:55.788Z,78.40
2018-04-18T05:47:23.329Z,78.30
2018-04-18T05:49:50.821Z,75.40
2018-04-18T05:52:18.348Z,73.00
2018-04-18T05:54:45.879Z,69.20
2018-04-18T05:57:13.424Z,66.80
2018-04-18T05:59:41.773Z,66.10
2018-04-18T06:02:09.257Z,66.00
2018-04-18T06:04:37.592Z,62.10
2018-04-18T06:07:05.097Z,62.00
2018-04-18T06:09:32.589Z,60.60
2018-04-18T06:12:00.124Z,60.60
2018-04-18T06:14:27.671Z,60.90
2018-04-18T06:16:55.944Z,62.80
2018-04-18T06:19:24.225Z,62.50
2018-04-18T06:21:51.733Z,62.30
2018-04-18T06:24:19.244Z,62.70
2018-04-18T06:26:47.514Z,60.50
2018-04-18T06:29:15.807Z,58.10
2018-04-18T06:31:43.323Z,58.10
2018-04-18T06:34:10.863Z,56.70
2018-04-18T06:36:38.366Z,56.40
2018-04-18T06:39:06.687Z,52.90
2018-04-18T06:41:34.222Z,52.90
2018-04-18T06:44:01.744Z,54.70
2018-04-18T06:46:30.024Z,53.40
2018-04-18T06:48:58.273Z,50.60
2018-04-18T06:51:25.775Z,50.50
2018-04-18T06:53:53.317Z,51.50
2018-04-18T06:56:21.607Z,50.80
2018-04-18T06:58:49.181Z,50.80
2018-04-18T07:01:16.712Z,50.90
2018-04-18T07:03:44.998Z,53.90
2018-04-18T07:06:13.306Z,51.70
2018-04-18T07:08:40.880Z,51.70
2018-04-18T07:11:08.436Z,55.30
2018-04-18T07:13:35.963Z,53.50
2018-04-18T07:16:03.485Z,51.40
2018-04-18T07:18:30.986Z,50.50
2018-04-18T07:20:58.479Z,49.90
2018-04-18T07:23:25.982Z,49.90
2018-04-18T07:25:53.543Z,49.80
2018-04-18T07:28:21.811Z,49.20
2018-04-18T07:30:50.055Z,48.50
2018-04-18T07:33:17.588Z,48.50
2018-04-18T07:35:45.104Z,50.20
2018-04-18T07:38:13.395Z,49.50
2018-04-18T07:40:40.924Z,49.40
2018-04-18T07:43:08.478Z,48.40
2018-04-18T07:45:35.991Z,50.80
2018-04-18T07:48:03.525Z,49.00
2018-04-18T07:50:31.041Z,48.80
2018-04-18T07:52:58.606Z,46.60
2018-04-18T07:55:26.107Z,44.80
2018-04-18T07:57:53.647Z,45.50
2018-04-18T08:00:21.967Z,43.40
2018-04-18T08:02:50.230Z,43.90
2018-04-18T08:05:17.792Z,43.90
2018-04-18T08:07:45.353Z,44.30
2018-04-18T08:10:12.922Z,45.00
2018-04-18T08:12:40.430Z,45.10
2018-04-18T08:15:07.929Z,44.90
2018-04-18T08:17:35.449Z,43.50
2018-04-18T08:20:03.731Z,42.40
2018-04-18T08:22:31.967Z,44.70
2018-04-18T08:24:59.512Z,44.70
2018-04-18T08:27:27.025Z,43.90
2018-04-18T08:29:54.563Z,45.70
2018-04-18T08:32:22.829Z,40.10
2018-04-18T08:34:50.340Z,40.20
2018-04-18T08:37:17.871Z,41.90
2018-04-18T08:39:46.168Z,37.00
2018-04-18T08:42:13.638Z,36.90
2018-04-18T08:44:41.124Z,39.10
2018-04-18T08:47:08.641Z,39.00
2018-04-18T08:49:36.204Z,38.50
2018-04-18T08:52:03.724Z,37.40
2018-04-18T08:54:31.960Z,47.70
2018-04-18T08:56:59.470Z,47.70
2018-04-18T08:59:26.991Z,47.30
2018-04-18T09:01:54.532Z,52.90
2018-04-18T09:04:22.071Z,54.50
2018-04-18T09:06:49.564Z,55.80
2018-04-18T09:09:17.043Z,58.30
2018-04-18T09:11:45.316Z,56.20
2018-04-18T09:14:13.589Z,61.30
2018-04-18T09:16:41.864Z,64.80
2018-04-18T09:19:10.160Z,57.20
2018-04-18T09:21:38.408Z,56.60
2018-04-18T09:24:05.880Z,56.60
2018-04-18T09:26:34.148Z,53.80
2018-04-18T09:29:01.644Z,53.80
2018-04-18T09:31:29.110Z,56.60
2018-04-18T09:33:56.611Z,55.20
2018-04-18T09:36:24.140Z,56.60
2018-04-18T09:38:51.636Z,59.90
2018-04-18T09:41:19.177Z,56.50
2018-04-18T09:43:46.657Z,59.60
2018-04-18T09:46:14.924Z,58.80
2018-04-18T09:48:43.232Z,57.80
2018-04-18T09:51:10.742Z,57.70
2018-04-18T09:53:38.268Z,56.80
2018-04-18T09:56:05.820Z,57.30
2018-04-18T09:58:33.366Z,59.10
2018-04-18T10:01:00.884Z,55.70
2018-04-18T10:03:28.373Z,56.70
2018-04-18T10:05:55.875Z,55.30
2018-04-18T10:08:23.399Z,56.10
2018-04-18T10:10:50.866Z,58.20
2018-04-18T10:13:18.357Z,56.40
2018-04-18T10:15:45.866Z,60.30
2018-04-18T10:18:13.373Z,65.00
2018-04-18T10:20:40.897Z,64.60
2018-04-18T10:23:08.386Z,58.70
2018-04-18T10:25:35.896Z,56.50
2018-04-18T10:28:03.373Z,62.80
2018-04-18T10:30:30.900Z,58.40
2018-04-18T10:32:59.199Z,56.70
2018-04-18T10:35:26.697Z,56.60
2018-04-18T10:37:54.174Z,52.50
2018-04-18T10:40:21.638Z,52.30
2018-04-18T10:42:49.936Z,52.10
2018-04-18T10:45:17.412Z,52.10
2018-04-18T10:47:44.930Z,56.00
2018-04-18T10:50:13.171Z,55.70
2018-04-18T10:52:40.654Z,55.70
2018-04-18T10:55:08.768Z,57.90
2018-04-18T10:57:36.242Z,56.90
2018-04-18T11:00:03.770Z,52.90
2018-04-18T11:02:31.288Z,53.50
2018-04-18T11:04:58.746Z,53.60
2018-04-18T11:07:26.260Z,53.80
2018-04-18T11:09:53.748Z,55.60
2018-04-18T11:12:21.265Z,54.90
2018-04-18T11:14:48.766Z,54.20
2018-04-18T11:17:16.314Z,55.60
2018-04-18T11:19:43.782Z,54.00
2018-04-18T11:22:11.324Z,54.30
2018-04-18T11:24:38.786Z,52.60
2018-04-18T11:27:06.299Z,51.60
2018-04-18T11:29:34.600Z,52.80
2018-04-18T11:32:02.072Z,52.80
2018-04-18T11:34:29.562Z,53.10
2018-04-18T11:36:57.071Z,54.80
2018-04-18T11:39:24.575Z,55.80
2018-04-18T11:41:52.087Z,52.70
2018-04-18T11:44:19.548Z,51.90
2018-04-18T11:46:47.045Z,51.80
2018-04-18T11:49:14.582Z,51.10
2018-04-18T11:51:42.083Z,51.40
2018-04-18T11:54:10.375Z,51.40
2018-04-18T11:56:37.900Z,51.40
2018-04-18T11:59:05.367Z,51.70
2018-04-18T12:01:33.624Z,52.10
2018-04-18T12:04:01.192Z,52.10
2018-04-18T12:06:28.650Z,52.90
2018-04-18T12:08:56.117Z,53.10
2018-04-18T12:11:24.424Z,51.60
2018-04-18T12:13:51.952Z,51.50
2018-04-18T12:16:20.214Z,52.70
2018-04-18T12:18:47.742Z,52.60
2018-04-18T12:21:15.250Z,47.60
2018-04-18T12:23:43.535Z,46.10
2018-04-18T12:26:11.052Z,46.10
2018-04-18T12:28:38.563Z,47.90
2018-04-18T12:31:06.050Z,47.80
2018-04-18T12:33:33.618Z,48.60
2018-04-18T12:36:01.116Z,48.90
2018-04-18T12:38:29.438Z,45.00
2018-04-18T12:40:56.972Z,44.90
2018-04-18T12:43:24.610Z,44.10
2018-04-18T12:45:52.867Z,45.20
2018-04-18T12:48:20.374Z,45.20
2018-04-18T12:50:47.880Z,46.20
2018-04-18T12:53:15.411Z,45.90
2018-04-18T12:55:42.919Z,44.90
2018-04-18T12:58:10.455Z,45.60
2018-04-18T13:00:38.123Z,43.80
2018-04-18T13:03:06.542Z,47.70
2018-04-18T13:05:34.063Z,48.00
2018-04-18T13:08:02.362Z,46.60
2018-04-18T13:10:29.891Z,46.60
2018-04-18T13:12:57.442Z,51.40
2018-04-18T13:15:24.997Z,48.00
2018-04-18T13:17:52.601Z,47.70
2018-04-18T13:20:20.110Z,48.30
2018-04-18T13:22:47.582Z,47.40
2018-04-18T13:25:15.161Z,46.80
2018-04-18T13:27:42.682Z,45.90
2018-04-18T13:30:10.231Z,46.90
2018-04-18T13:32:38.537Z,47.00
2018-04-18T13:35:06.069Z,47.00
2018-04-18T13:37:33.539Z,45.70
2018-04-18T13:40:01.092Z,45.20
2018-04-18T13:42:28.672Z,46.30
2018-04-18T13:44:56.175Z,46.80
2018-04-18T13:47:23.697Z,47.10
2018-04-18T13:49:52.030Z,46.20
2018-04-18T13:52:19.508Z,46.20
2018-04-18T13:54:47.027Z,46.70
2018-04-18T13:57:14.492Z,46.50
2018-04-18T13:59:41.976Z,45.20
2018-04-18T14:02:09.499Z,45.50
2018-04-18T14:04:36.958Z,44.90
2018-04-18T14:07:04.473Z,45.00
2018-04-18T14:09:32.730Z,41.80
2018-04-18T14:12:00.264Z,42.20
2018-04-18T14:14:27.796Z,44.30
2018-04-18T14:16:55.259Z,43.90
2018-04-18T14:19:22.728Z,41.70
2018-04-18T14:21:50.243Z,43.50
2018-04-18T14:24:18.543Z,43.60
2018-04-18T14:26:46.036Z,43.50
2018-04-18T14:29:13.547Z,41.30
2018-04-18T14:31:41.089Z,40.10
2018-04-18T14:34:09.366Z,40.50
2018-04-18T14:36:36.904Z,40.50
2018-04-18T14:39:04.420Z,39.50
2018-04-18T14:41:31.938Z,41.50
2018-04-18T14:44:00.226Z,36.50
2018-04-18T14:46:28.474Z,39.60
2018-04-18T14:48:56.000Z,39.60
2018-04-18T14:51:23.569Z,38.50
2018-04-18T14:53:51.063Z,40.50
2018-04-18T14:56:19.302Z,41.40
2018-04-18T14:58:46.774Z,41.20
2018-04-18T15:01:14.298Z,40.50
2018-04-18T15:03:41.815Z,39.50
2018-04-18T15:06:10.078Z,37.60
2018-04-18T15:08:37.638Z,37.50
2018-04-18T15:11:05.130Z,38.80
2018-04-18T15:13:32.603Z,40.40
2018-04-18T15:16:00.119Z,40.30
2018-04-18T15:18:28.376Z,36.70
2018-04-18T15:20:55.911Z,36.70
2018-04-18T15:23:23.379Z,37.10
2018-04-18T15:25:50.857Z,37.30
2018-04-18T15:28:19.180Z,40.40
2018-04-18T15:30:46.632Z,40.40
2018-04-18T15:33:14.161Z,39.60
2018-04-18T15:35:42.449Z,37.40
2018-04-18T15:38:10.683Z,37.10
2018-04-18T15:40:38.225Z,37.10
2018-04-18T15:43:05.791Z,38.70
2018-04-18T15:45:34.098Z,30.00
2018-04-18T15:48:01.598Z,30.00
2018-04-18T15:50:29.132Z,31.20
2018-04-18T15:52:56.612Z,40.80
2018-04-18T15:55:24.080Z,43.40
2018-04-18T15:57:51.569Z,44.20
2018-04-18T16:00:19.069Z,43.70
2018-04-18T16:02:46.562Z,46.00
2018-04-18T16:05:14.079Z,42.50
2018-04-18T16:07:42.368Z,45.60
2018-04-18T16:10:09.871Z,45.60
2018-04-18T16:12:37.358Z,45.00
2018-04-18T16:15:05.655Z,44.60
2018-04-18T16:17:33.121Z,44.60
2018-04-18T16:20:00.648Z,43.40
2018-04-18T16:22:28.930Z,39.10
2018-04-18T16:24:56.446Z,38.40
2018-04-18T16:27:23.930Z,37.70
2018-04-18T16:29:51.403Z,37.20
2018-04-18T16:32:19.685Z,41.50
2018-04-18T16:34:47.980Z,39.70
2018-04-18T16:37:15.463Z,39.70
2018-04-18T16:39:43.049Z,40.80
2018-04-18T16:42:10.514Z,43.50
2018-04-18T16:44:38.764Z,42.90
2018-04-18T16:47:06.327Z,42.90
2018-04-18T16:49:33.883Z,43.00
2018-04-18T16:52:01.391Z,43.40
2018-04-18T16:54:28.913Z,42.20
2018-04-18T16:56:56.405Z,42.40
2018-04-18T16:59:23.924Z,42.00
2018-04-18T17:01:51.427Z,42.60
2018-04-18T17:04:18.947Z,43.20
2018-04-18T17:06:46.503Z,43.00
2018-04-18T17:09:14.029Z,42.10
2018-04-18T17:11:42.224Z,42.90
2018-04-18T17:14:09.715Z,42.90
2018-04-18T17:16:37.979Z,43.20
2018-04-18T17:19:05.481Z,43.20
2018-04-18T17:21:33.006Z,42.60
2018-04-18T17:24:00.507Z,42.30
2018-04-18T17:26:27.993Z,42.80
2018-04-18T17:28:55.507Z,42.80
2018-04-18T17:31:23.003Z,42.40
2018-04-18T17:33:50.597Z,42.40
2018-04-18T17:36:18.026Z,42.80
2018-04-18T17:38:45.566Z,42.70
2018-04-18T17:41:13.073Z,43.10
2018-04-18T17:43:41.368Z,44.40
2018-04-18T17:46:08.870Z,44.30
2018-04-18T17:48:36.436Z,44.70
2018-04-18T17:51:03.914Z,44.90
2018-04-18T17:53:31.523Z,45.90
2018-04-18T17:55:59.050Z,47.10
2018-04-18T17:58:26.588Z,48.10
2018-04-18T18:00:54.887Z,49.70
2018-04-18T18:03:22.372Z,49.70
2018-04-18T18:05:49.911Z,50.80
2018-04-18T18:08:17.422Z,51.10
2018-04-18T18:10:44.951Z,51.20
2018-04-18T18:13:12.441Z,51.90
2018-04-18T18:15:39.987Z,52.30
2018-04-18T18:18:07.495Z,53.10
2018-04-18T18:20:34.985Z,53.70
2018-04-18T18:23:02.485Z,53.70
2018-04-18T18:25:30.786Z,55.00
2018-04-18T18:27:59.041Z,55.90
2018-04-18T18:30:27.317Z,57.80
2018-04-18T18:32:55.587Z,59.30
2018-04-18T18:35:23.870Z,61.80
2018-04-18T18:37:52.139Z,62.50
2018-04-18T18:40:20.419Z,65.10
2018-04-18T18:42:47.961Z,65.10
2018-04-18T18:45:15.438Z,68.90
2018-04-18T18:47:43.717Z,72.50
2018-04-18T18:50:12.011Z,71.70
2018-04-18T18:52:39.541Z,71.60
2018-04-18T18:55:07.859Z,74.30
2018-04-18T18:57:35.335Z,74.20
2018-04-18T19:00:02.909Z,76.00
2018-04-18T19:02:30.352Z,78.70
2018-04-18T19:04:58.642Z,79.40
2018-04-18T19:07:26.179Z,79.40
2018-04-18T19:09:53.690Z,80.80
2018-04-18T19:12:21.980Z,82.70
2018-04-18T19:14:49.543Z,82.50
2018-04-18T19:17:17.035Z,83.20
2018-04-18T19:19:45.322Z,83.10
2018-04-18T19:22:12.832Z,83.00
2018-04-18T19:24:40.351Z,86.00
2018-04-18T19:27:07.876Z,87.40
2018-04-18T19:29:35.346Z,88.30
2018-04-18T19:32:02.829Z,88.70
2018-04-18T19:34:30.327Z,86.90
2018-04-18T19:36:57.876Z,87.30
2018-04-18T19:39:25.429Z,88.60
2018-04-18T19:41:52.979Z,90.00
2018-04-18T19:44:20.489Z,90.40
2018-04-18T19:46:48.002Z,90.50
2018-04-18T19:49:16.285Z,90.90
2018-04-18T19:51:43.779Z,90.90
2018-04-18T19:54:11.317Z,90.90
2018-04-18T19:56:38.811Z,91.30
2018-04-18T19:59:06.341Z,91.60
2018-04-18T20:01:33.856Z,91.70
2018-04-18T20:04:02.177Z,92.00
2018-04-18T20:06:29.735Z,91.70
2018-04-18T20:08:57.260Z,91.70
2018-04-18T20:11:25.543Z,91.80
2018-04-18T20:13:53.830Z,92.00
2018-04-18T20:16:21.347Z,92.00
2018-04-18T20:18:48.827Z,92.20
2018-04-18T20:21:17.117Z,92.20
2018-04-18T20:23:44.590Z,92.20
2018-04-18T20:26:12.114Z,92.10
2018-04-18T20:28:40.354Z,92.10
2018-04-18T20:31:07.863Z,92.00
2018-04-18T20:33:35.400Z,91.90
2018-04-18T20:36:03.670Z,92.40
2018-04-18T20:38:31.150Z,92.50
2018-04-18T20:40:58.646Z,93.40
2018-04-18T20:43:26.133Z,93.00
2018-04-18T20:45:53.658Z,92.70
2018-04-18T20:48:21.140Z,92.20
2018-04-18T20:50:48.638Z,92.50
2018-04-18T20:53:16.900Z,93.30
2018-04-18T20:55:45.196Z,93.40
2018-04-18T20:58:12.710Z,93.40
2018-04-18T21:00:40.255Z,94.10
2018-04-18T21:03:07.777Z,94.40
2018-04-18T21:05:35.286Z,94.60
2018-04-18T21:08:02.817Z,94.60
2018-04-18T21:10:30.339Z,95.10
2018-04-18T21:12:57.875Z,95.10
2018-04-18T21:15:25.443Z,95.10
2018-04-18T21:17:52.927Z,95.60
2018-04-18T21:20:20.413Z,95.40
2018-04-18T21:22:47.904Z,95.40
2018-04-18T21:25:16.216Z,95.60
2018-04-18T21:27:43.803Z,95.50
2018-04-18T21:30:11.339Z,95.70
2018-04-18T21:32:38.862Z,95.70
2018-04-18T21:35:07.136Z,95.90
2018-04-18T21:37:35.409Z,96.00
2018-04-18T21:40:03.666Z,96.00
2018-04-18T21:42:31.206Z,96.30
2018-04-18T21:44:58.687Z,96.00
2018-04-18T21:47:26.183Z,96.20
2018-04-18T21:49:53.664Z,96.20
2018-04-18T21:52:21.144Z,96.20
2018-04-18T21:54:48.688Z,96.30
2018-04-18T21:57:16.195Z,96.30
2018-04-18T21:59:44.469Z,96.70
2018-04-18T22:02:12.726Z,96.70
2018-04-18T22:04:41.764Z,96.70
2018-04-18T22:09:43.371Z,96.90
2018-04-18T22:12:15.790Z,97.00
2018-04-18T22:14:44.068Z,96.90
2018-04-18T22:17:11.597Z,96.90
2018-04-18T22:19:39.046Z,97.30
2018-04-18T22:22:06.615Z,97.00
2018-04-18T22:24:34.125Z,97.10
2018-04-18T22:27:01.821Z,97.10
2018-04-18T22:29:29.366Z,97.40
2018-04-18T22:31:56.868Z,97.60
2018-04-18T22:34:25.178Z,97.80
2018-04-18T22:36:52.741Z,97.80
2018-04-18T22:39:21.127Z,98.00
2018-04-18T22:41:48.699Z,97.90
2018-04-18T22:44:16.630Z,97.90
2018-04-18T22:46:44.145Z,97.90
2018-04-18T22:49:11.687Z,98.10
2018-04-18T22:51:39.196Z,98.30
2018-04-18T22:54:07.534Z,98.40
2018-04-18T22:56:35.068Z,98.30
2018-04-18T22:59:02.573Z,98.20
2018-04-18T23:01:30.882Z,98.30
2018-04-18T23:03:58.431Z,98.20
2018-04-18T23:06:25.941Z,98.30
2018-04-18T23:08:53.463Z,98.30
2018-04-18T23:11:20.945Z,98.40
2018-04-18T23:13:48.582Z,98.60
2018-04-18T23:16:16.116Z,98.70
2018-04-18T23:18:43.687Z,98.70
2018-04-18T23:21:12.003Z,98.70
2018-04-18T23:23:39.648Z,98.70
2018-04-18T23:26:07.147Z,98.70
2018-04-18T23:28:34.746Z,98.60
2018-04-18T23:31:02.227Z,98.30
2018-04-18T23:33:29.725Z,98.60
2018-04-18T23:35:58.016Z,98.40
2018-04-18T23:38:26.321Z,98.50
2018-04-18T23:40:53.811Z,98.10
2018-04-18T23:43:21.474Z,98.20
2018-04-18T23:45:48.949Z,98.40
2018-04-18T23:48:17.198Z,98.60
2018-04-18T23:50:44.679Z,98.90
2018-04-18T23:53:12.228Z,99.00
2018-04-18T23:55:39.717Z,99.10
2018-04-18T23:58:08.023Z,99.30
